Weather at De Lesseps Field [CLOSED]

Public forecast

Using degrees Celsius for public forecast. Weather courtesy of forecast.io.

Closest aviation weather report (METAR) to De Lesseps Field

Closest report is Toronto Lester B. Pearson International Airport, 6.0 nm (11.1 km) WSW.

2024/05/19 22:00 (retrieved 1 hour ago)

CYYZ 192200Z 15008KT 15SM FEW060TCU FEW260 23/15 A2993 RMK TCU1CI1 CI TR TCU N-NE SLP136 DENSITY ALT 1600FT

Closest aviation forecast (TAF) to De Lesseps Field

Closest forecast is Toronto Lester B. Pearson International Airport, 6.0 nm (11.1 km) WSW.

2024/05/19 21:45 (retrieved 1 hour ago)

TAF CYYZ 192040Z 1921/2024 13010KT P6SM FEW040 FM192200 17008KT P6SM SCT050 TEMPO 1922/1924 P6SM VCTS BKN050CB FM200300 28005KT P6SM SCT050 BECMG 2003/2005 34005KT BECMG 2013/2015 16008KT RMK NXT FCST BY 200000Z